Time;durP1;ratioP1;P1;durP2;ratioP2;P2;SDS_P1;SDS_P2;PMS_P1;PMS_P2;Temp;Humidity;BMP_temperature;BMP_pressure;BME280_temperature;BME280_humidity;BME280_pressure;Samples;Min_cycle;Max_cycle;Signal;HPM_P1;HPM_P2
2022/07/26 00:01:50;;;;;;;11.38;2.33;;;19.80;98.00;;;;;;5007353;28;20126;-69
2022/07/26 00:04:16;;;;;;;9.15;2.28;;;19.80;98.10;;;;;;5011397;28;20061;-69
2022/07/26 00:06:42;;;;;;;8.05;2.42;;;19.80;98.20;;;;;;4993249;28;20029;-69
2022/07/26 00:09:08;;;;;;;11.60;2.10;;;19.70;98.10;;;;;;5011491;28;20025;-69
2022/07/26 00:11:33;;;;;;;11.50;2.00;;;19.70;98.10;;;;;;5010870;28;20028;-69
2022/07/26 00:14:01;;;;;;;7.85;1.45;;;19.80;98.10;;;;;;5007258;28;20434;-69
2022/07/26 00:16:27;;;;;;;11.32;2.20;;;19.80;98.40;;;;;;5001885;28;20029;-69
2022/07/26 00:18:53;;;;;;;7.57;2.15;;;19.60;98.30;;;;;;4997334;28;20030;-69
2022/07/26 00:21:18;;;;;;;6.47;2.05;;;19.70;98.30;;;;;;5010400;28;20200;-69
2022/07/26 00:23:44;;;;;;;7.40;1.73;;;19.80;99.90;;;;;;5002089;28;20085;-68
2022/07/26 00:26:09;;;;;;;7.40;2.38;;;19.60;98.40;;;;;;5004074;28;20023;-69
2022/07/26 00:28:35;;;;;;;7.03;2.00;;;19.70;98.40;;;;;;4998050;28;20244;-69
2022/07/26 00:31:01;;;;;;;5.43;1.80;;;19.60;98.50;;;;;;4977956;28;20054;-69
2022/07/26 00:33:26;;;;;;;12.20;2.03;;;19.60;98.50;;;;;;4981479;28;20042;-69
2022/07/26 00:35:52;;;;;;;9.88;2.40;;;19.60;98.60;;;;;;4992486;28;20022;-69
2022/07/26 00:38:17;;;;;;;9.32;2.00;;;19.50;98.60;;;;;;4995409;28;20275;-69
2022/07/26 00:40:43;;;;;;;6.22;1.85;;;19.60;98.60;;;;;;4991166;28;20034;-69
2022/07/26 00:43:09;;;;;;;6.15;2.28;;;19.50;98.70;;;;;;4991256;28;20022;-69
2022/07/26 00:45:34;;;;;;;9.15;1.67;;;19.50;98.70;;;;;;4996776;28;20033;-69
2022/07/26 00:48:00;;;;;;;4.88;1.45;;;19.40;98.70;;;;;;4997189;28;20049;-69
2022/07/26 00:50:25;;;;;;;6.75;1.77;;;19.50;98.80;;;;;;4990251;28;20152;-69
2022/07/26 00:52:51;;;;;;;4.22;1.75;;;19.40;98.70;;;;;;4990583;28;20105;-69
2022/07/26 00:55:17;;;;;;;5.30;1.63;;;19.30;98.80;;;;;;4990455;28;20101;-69
2022/07/26 00:57:44;;;;;;;8.07;1.63;;;19.30;98.90;;;;;;4990754;28;20041;-69
2022/07/26 01:00:15;;;;;;;10.10;2.28;;;19.40;99.00;;;;;;4990797;28;20038;-69
2022/07/26 01:02:41;;;;;;;5.05;1.55;;;19.40;98.40;;;;;;4982366;28;20104;-69
2022/07/26 01:05:07;;;;;;;6.65;2.03;;;19.20;98.90;;;;;;4996411;28;20045;-69
2022/07/26 01:07:33;;;;;;;13.63;2.90;;;19.30;99.00;;;;;;4990108;28;20030;-69
2022/07/26 01:10:00;;;;;;;9.95;1.65;;;19.30;99.10;;;;;;4993369;28;20149;-69
2022/07/26 01:12:26;;;;;;;8.68;1.38;;;19.30;99.20;;;;;;4997690;28;20030;-69
2022/07/26 01:14:51;;;;;;;8.30;2.00;;;19.20;99.00;;;;;;4991274;28;20036;-69
2022/07/26 01:17:17;;;;;;;5.82;1.85;;;;;;;;;;4995651;28;20033;-69
2022/07/26 01:19:43;;;;;;;9.90;2.03;;;19.20;98.10;;;;;;4990197;28;20498;-68
2022/07/26 01:22:08;;;;;;;7.90;1.73;;;19.20;99.20;;;;;;4989232;28;20065;-69
2022/07/26 01:24:34;;;;;;;5.60;1.50;;;19.20;99.30;;;;;;4989833;28;20069;-69
2022/07/26 01:26:59;;;;;;;5.68;1.75;;;19.10;99.20;;;;;;4990675;28;20030;-69
2022/07/26 01:29:25;;;;;;;9.43;2.45;;;19.20;99.40;;;;;;4990330;28;20101;-69
2022/07/26 01:31:51;;;;;;;8.30;1.63;;;19.10;99.50;;;;;;4990835;28;20033;-69
2022/07/26 01:34:17;;;;;;;8.85;1.70;;;19.10;99.50;;;;;;5006340;28;20034;-69
2022/07/26 01:36:43;;;;;;;8.32;2.42;;;19.10;99.60;;;;;;5009948;28;20063;-69
2022/07/26 01:39:08;;;;;;;7.78;1.80;;;19.00;99.70;;;;;;5009423;28;20069;-68
2022/07/26 01:41:34;;;;;;;8.13;1.90;;;19.00;99.90;;;;;;4996808;28;20124;-68
2022/07/26 01:44:00;;;;;;;7.78;2.33;;;18.90;99.90;;;;;;5010117;28;20038;-69
2022/07/26 01:46:26;;;;;;;11.00;2.58;;;18.90;99.90;;;;;;5009487;28;20025;-69
2022/07/26 01:48:52;;;;;;;7.30;2.42;;;18.80;99.70;;;;;;5009832;28;20030;-69
2022/07/26 01:51:18;;;;;;;9.32;2.45;;;18.80;99.90;;;;;;5001973;28;20039;-69
2022/07/26 01:53:44;;;;;;;14.48;2.33;;;18.90;99.90;;;;;;5002094;28;20030;-69
2022/07/26 01:56:11;;;;;;;9.32;1.75;;;18.70;99.90;;;;;;5008372;28;20033;-69
2022/07/26 01:58:37;;;;;;;7.38;1.88;;;18.70;99.90;;;;;;5009851;28;20052;-69
2022/07/26 02:01:02;;;;;;;9.35;2.15;;;18.70;99.90;;;;;;5009359;28;20037;-69
2022/07/26 02:03:28;;;;;;;4.82;1.70;;;19.50;99.90;;;;;;4992145;28;20033;-69
2022/07/26 02:05:53;;;;;;;9.80;2.05;;;18.70;99.90;;;;;;5009464;28;20113;-68
2022/07/26 02:08:19;;;;;;;7.07;2.72;;;18.70;99.90;;;;;;4996254;28;20018;-68
2022/07/26 02:10:59;;;;;;;5.85;1.52;;;18.60;99.90;;;;;;5009683;28;20045;-69
2022/07/26 02:13:29;;;;;;;6.93;2.25;;;18.70;99.90;;;;;;5003576;28;20061;-68
2022/07/26 02:15:57;;;;;;;6.90;1.98;;;18.70;99.90;;;;;;5002471;28;20026;-69
2022/07/26 02:18:24;;;;;;;4.90;2.13;;;19.50;99.90;;;;;;5009172;28;20076;-69
2022/07/26 02:20:49;;;;;;;7.68;2.33;;;18.70;99.90;;;;;;5004880;28;20113;-68
2022/07/26 02:23:15;;;;;;;10.60;2.17;;;18.80;99.90;;;;;;5008363;28;20463;-69
2022/07/26 02:25:40;;;;;;;7.00;2.20;;;18.80;99.90;;;;;;5012984;28;20499;-69
2022/07/26 02:28:06;;;;;;;5.43;2.40;;;18.70;99.90;;;;;;5012012;28;20025;-69
2022/07/26 02:30:32;;;;;;;8.68;2.72;;;18.70;99.90;;;;;;5010288;28;20026;-69
2022/07/26 02:32:57;;;;;;;6.75;2.30;;;18.80;99.90;;;;;;4991890;28;20033;-69
2022/07/26 02:35:23;;;;;;;5.40;2.40;;;18.70;99.90;;;;;;5003139;28;20129;-69
2022/07/26 02:37:48;;;;;;;6.15;2.20;;;18.70;99.90;;;;;;5007723;28;20034;-68
2022/07/26 02:40:14;;;;;;;7.45;2.20;;;18.70;99.90;;;;;;5001130;28;20045;-69
2022/07/26 02:42:39;;;;;;;7.07;2.42;;;18.60;99.90;;;;;;5009914;28;20467;-69
2022/07/26 02:45:05;;;;;;;8.38;3.05;;;18.70;99.90;;;;;;4999369;28;20018;-69
2022/07/26 02:47:31;;;;;;;4.70;2.65;;;18.70;99.90;;;;;;5012387;28;20026;-69
2022/07/26 02:49:57;;;;;;;8.52;2.40;;;20.20;99.90;;;;;;5012991;28;20077;-69
2022/07/26 02:52:23;;;;;;;4.40;2.08;;;18.70;99.90;;;;;;4992457;28;20034;-69
2022/07/26 02:54:48;;;;;;;9.05;2.88;;;18.70;99.90;;;;;;4997011;28;20112;-69
2022/07/26 02:57:14;;;;;;;4.90;1.98;;;18.70;99.90;;;;;;5012844;28;20014;-69
2022/07/26 02:59:40;;;;;;;7.25;2.25;;;18.60;99.90;;;;;;5011946;28;20033;-69
2022/07/26 03:02:06;;;;;;;4.80;2.13;;;18.70;99.90;;;;;;4997693;28;20070;-68
2022/07/26 03:04:32;;;;;;;6.43;2.30;;;;;;;;;;5000077;28;20029;-69
2022/07/26 03:06:57;;;;;;;4.90;2.35;;;18.80;99.90;;;;;;4998741;28;20109;-69
2022/07/26 03:09:23;;;;;;;5.28;2.33;;;18.80;99.90;;;;;;4994829;28;20018;-69
2022/07/26 03:11:48;;;;;;;5.63;2.25;;;18.80;99.90;;;;;;5008916;28;20041;-69
2022/07/26 03:14:14;;;;;;;7.20;2.42;;;18.80;99.90;;;;;;5001699;28;20376;-69
2022/07/26 03:16:39;;;;;;;10.40;3.17;;;18.70;99.90;;;;;;5012089;28;20041;-69
2022/07/26 03:19:05;;;;;;;5.60;2.40;;;18.80;99.90;;;;;;5012638;28;20018;-69
2022/07/26 03:21:30;;;;;;;4.55;3.00;;;18.80;99.90;;;;;;5011864;28;20042;-69
2022/07/26 03:23:56;;;;;;;6.38;2.92;;;18.70;99.90;;;;;;5012283;28;20050;-69
2022/07/26 03:26:21;;;;;;;7.95;3.00;;;18.80;99.90;;;;;;5012143;28;20030;-69
2022/07/26 03:28:47;;;;;;;9.40;2.58;;;18.90;99.90;;;;;;5008576;28;20411;-69
2022/07/26 03:31:13;;;;;;;8.25;3.70;;;19.10;99.90;;;;;;5001407;28;20026;-69
2022/07/26 03:33:39;;;;;;;7.22;2.97;;;18.90;99.90;;;;;;5012270;28;20052;-69
2022/07/26 03:36:05;;;;;;;7.13;3.00;;;18.90;99.90;;;;;;5006630;28;20029;-69
2022/07/26 03:38:31;;;;;;;10.05;3.90;;;18.90;99.90;;;;;;5011596;28;20037;-69
2022/07/26 03:40:57;;;;;;;4.75;2.47;;;18.80;99.90;;;;;;4996947;28;20049;-69
2022/07/26 03:43:22;;;;;;;8.73;3.35;;;18.80;99.90;;;;;;4999121;28;20076;-69
2022/07/26 03:45:48;;;;;;;11.45;3.53;;;18.80;99.90;;;;;;5011823;28;20065;-69
2022/07/26 03:48:14;;;;;;;9.43;2.80;;;18.70;99.90;;;;;;5006403;28;20029;-69
2022/07/26 03:50:39;;;;;;;7.97;2.95;;;18.40;99.90;;;;;;4992166;28;20035;-69
2022/07/26 03:53:05;;;;;;;9.48;3.45;;;18.50;99.90;;;;;;5008392;28;20025;-69
2022/07/26 03:58:15;;;;;;;7.05;3.15;;;18.50;99.90;;;;;;4995629;28;20067;-68
2022/07/26 04:00:41;;;;;;;7.93;3.58;;;18.10;99.90;;;;;;4993210;28;20038;-69
2022/07/26 04:03:06;;;;;;;7.10;3.47;;;18.20;99.90;;;;;;5008036;28;20390;-69
2022/07/26 04:05:32;;;;;;;7.43;3.20;;;18.20;99.90;;;;;;5007324;28;20391;-68
2022/07/26 04:07:57;;;;;;;7.88;3.17;;;19.30;99.90;;;;;;5003649;28;20076;-69
2022/07/26 04:10:23;;;;;;;10.05;3.60;;;18.10;99.90;;;;;;5011261;28;20026;-69
2022/07/26 04:12:49;;;;;;;6.50;3.55;;;18.10;99.90;;;;;;5001688;28;20022;-68
2022/07/26 04:15:15;;;;;;;9.73;3.55;;;18.10;99.90;;;;;;5008610;28;20026;-68
2022/07/26 04:17:42;;;;;;;8.30;3.33;;;18.00;99.90;;;;;;4993657;28;20541;-68
2022/07/26 04:20:09;;;;;;;9.18;3.72;;;18.10;99.90;;;;;;5011092;28;20487;-69
2022/07/26 04:22:36;;;;;;;9.45;3.95;;;18.00;99.90;;;;;;4998034;28;20043;-68
2022/07/26 04:25:03;;;;;;;7.28;3.08;;;18.10;99.90;;;;;;5010527;28;20104;-68
2022/07/26 04:27:29;;;;;;;9.57;4.00;;;18.00;99.90;;;;;;4998846;28;20038;-69
2022/07/26 04:29:54;;;;;;;5.13;3.00;;;18.10;99.90;;;;;;5008840;28;20033;-69
2022/07/26 04:32:20;;;;;;;7.88;3.15;;;18.30;99.90;;;;;;5010996;28;20030;-69
2022/07/26 04:34:45;;;;;;;6.80;3.47;;;18.00;99.90;;;;;;5010951;28;20032;-70
2022/07/26 04:37:11;;;;;;;8.10;3.63;;;18.00;99.90;;;;;;4991320;28;20084;-69
2022/07/26 04:39:36;;;;;;;7.93;3.88;;;18.10;99.90;;;;;;5004850;28;20023;-69
2022/07/26 04:42:02;;;;;;;9.63;3.80;;;18.00;99.90;;;;;;5001207;28;20033;-69
2022/07/26 04:44:28;;;;;;;9.60;3.50;;;18.10;99.90;;;;;;4992893;28;20480;-69
2022/07/26 04:46:53;;;;;;;11.32;3.53;;;18.10;99.90;;;;;;5001611;28;20049;-68
2022/07/26 04:49:19;;;;;;;10.48;3.30;;;18.10;99.90;;;;;;4991414;28;20031;-69
2022/07/26 04:51:44;;;;;;;12.82;3.85;;;18.00;99.90;;;;;;5010562;28;20060;-69
2022/07/26 04:54:10;;;;;;;6.40;3.22;;;18.00;99.90;;;;;;5010572;28;20477;-69
2022/07/26 04:56:35;;;;;;;5.60;3.97;;;18.00;99.90;;;;;;4996078;28;20025;-68
2022/07/26 04:59:01;;;;;;;6.95;3.63;;;18.00;99.90;;;;;;5010742;28;20030;-68
2022/07/26 05:01:26;;;;;;;10.77;3.97;;;18.00;99.90;;;;;;5007981;28;20049;-68
2022/07/26 05:03:51;;;;;;;12.25;3.78;;;18.00;99.90;;;;;;4999157;28;20044;-69
2022/07/26 05:06:17;;;;;;;8.23;3.65;;;18.00;99.90;;;;;;4998483;28;20039;-69
2022/07/26 05:08:43;;;;;;;5.40;3.22;;;18.10;99.90;;;;;;5010358;28;20030;-69
2022/07/26 05:11:08;;;;;;;8.40;4.32;;;19.40;99.90;;;;;;4998140;28;20117;-69
2022/07/26 05:13:34;;;;;;;5.82;3.47;;;18.20;99.90;;;;;;5008203;28;20030;-69
2022/07/26 05:16:00;;;;;;;11.85;3.58;;;18.30;99.90;;;;;;5010513;28;20125;-69
2022/07/26 05:18:26;;;;;;;6.65;3.55;;;18.30;99.90;;;;;;5010027;28;20032;-69
2022/07/26 05:20:52;;;;;;;9.32;4.18;;;19.70;99.90;;;;;;5010239;28;20042;-69
2022/07/26 05:23:19;;;;;;;8.23;3.25;;;18.30;99.90;;;;;;5009962;28;20442;-69
2022/07/26 05:25:44;;;;;;;5.90;3.10;;;18.50;99.90;;;;;;4995726;28;20061;-69
2022/07/26 05:28:10;;;;;;;6.70;3.15;;;18.40;99.90;;;;;;4998038;28;20092;-69
2022/07/26 05:30:36;;;;;;;8.43;3.38;;;18.40;99.90;;;;;;5008101;28;20030;-69
2022/07/26 05:33:01;;;;;;;9.45;2.70;;;18.50;99.90;;;;;;4997039;28;20029;-69
2022/07/26 05:35:27;;;;;;;3.75;2.53;;;18.70;99.90;;;;;;4997667;28;20034;-69
2022/07/26 05:37:53;;;;;;;3.83;2.55;;;18.60;99.90;;;;;;4990172;28;20041;-69
2022/07/26 05:40:18;;;;;;;6.97;2.50;;;18.70;99.90;;;;;;4999761;28;20042;-69
2022/07/26 05:42:44;;;;;;;3.63;2.50;;;18.70;99.90;;;;;;5007711;28;20030;-69
2022/07/26 05:45:10;;;;;;;8.40;2.35;;;18.80;99.90;;;;;;4998511;28;20030;-69
2022/07/26 05:47:36;;;;;;;5.10;2.58;;;18.80;99.90;;;;;;5010051;28;20026;-69
2022/07/26 05:50:02;;;;;;;6.97;2.28;;;18.90;99.90;;;;;;5010115;28;20448;-69
2022/07/26 05:52:27;;;;;;;6.60;2.15;;;19.60;99.90;;;;;;4989446;28;20105;-69
2022/07/26 05:54:53;;;;;;;5.82;2.40;;;19.10;99.90;;;;;;4992342;28;20108;-69
2022/07/26 05:57:19;;;;;;;9.82;3.03;;;19.20;99.90;;;;;;5004511;28;20025;-69
2022/07/26 05:59:44;;;;;;;6.88;2.47;;;19.40;99.90;;;;;;5012276;28;20040;-69
2022/07/26 06:02:10;;;;;;;6.40;2.20;;;19.60;99.90;;;;;;4994171;28;20038;-69
2022/07/26 06:04:35;;;;;;;6.68;2.05;;;19.70;99.90;;;;;;5007137;28;20026;-69
2022/07/26 06:07:01;;;;;;;7.30;1.73;;;19.70;99.90;;;;;;5012971;28;20029;-69
2022/07/26 06:09:26;;;;;;;4.43;1.60;;;19.90;99.90;;;;;;5012847;28;20092;-70
2022/07/26 06:11:52;;;;;;;5.28;1.60;;;21.30;99.90;;;;;;5013680;28;20101;-69
2022/07/26 06:14:18;;;;;;;4.60;1.85;;;20.20;99.90;;;;;;5004520;28;20464;-69
2022/07/26 06:16:45;;;;;;;4.50;1.55;;;21.10;99.90;;;;;;5009094;28;20424;-69
2022/07/26 06:19:11;;;;;;;4.55;1.92;;;20.40;99.90;;;;;;5013451;28;20068;-69
2022/07/26 06:21:37;;;;;;;4.95;1.45;;;20.40;99.90;;;;;;5013306;28;20117;-69
2022/07/26 06:24:03;;;;;;;5.10;1.50;;;20.40;99.90;;;;;;4998872;28;20091;-68
2022/07/26 06:26:28;;;;;;;5.85;1.40;;;20.30;99.90;;;;;;5013168;28;20038;-70
2022/07/26 06:28:54;;;;;;;4.43;1.20;;;20.40;99.90;;;;;;5010341;28;20033;-69
2022/07/26 06:31:19;;;;;;;4.53;1.33;;;20.30;99.90;;;;;;4993337;28;20037;-70
2022/07/26 06:33:45;;;;;;;2.60;1.35;;;20.20;99.90;;;;;;5005720;28;20155;-70
2022/07/26 06:36:11;;;;;;;3.67;1.30;;;20.20;99.90;;;;;;4999242;28;20026;-70
2022/07/26 06:38:37;;;;;;;5.15;1.38;;;20.20;99.90;;;;;;5002459;28;20383;-70
2022/07/26 06:41:02;;;;;;;4.68;1.80;;;20.20;99.90;;;;;;4995799;28;20042;-70
2022/07/26 06:43:28;;;;;;;4.72;1.33;;;20.30;99.90;;;;;;5012772;28;20029;-69
2022/07/26 06:45:53;;;;;;;3.88;1.58;;;20.20;99.90;;;;;;5012820;28;20029;-70
2022/07/26 06:48:19;;;;;;;6.63;1.45;;;20.20;99.90;;;;;;5013133;28;20038;-70
2022/07/26 06:50:44;;;;;;;4.55;1.10;;;20.30;99.90;;;;;;5012880;28;20518;-69
2022/07/26 06:53:10;;;;;;;2.92;1.70;;;20.20;99.90;;;;;;5011922;28;20056;-70
2022/07/26 06:55:35;;;;;;;6.30;1.85;;;20.50;99.90;;;;;;5007775;28;20263;-70
2022/07/26 06:58:01;;;;;;;2.83;1.20;;;20.30;99.90;;;;;;5009064;28;20537;-70
2022/07/26 07:00:26;;;;;;;4.85;1.67;;;20.20;99.90;;;;;;5001938;28;20034;-69
2022/07/26 07:02:52;;;;;;;5.57;2.47;;;20.40;99.90;;;;;;5000683;28;20081;-70
2022/07/26 07:05:17;;;;;;;4.10;1.55;;;20.50;99.90;;;;;;4990313;28;20152;-70
2022/07/26 07:07:43;;;;;;;2.97;1.55;;;20.50;99.90;;;;;;4991417;28;20037;-70
2022/07/26 07:10:09;;;;;;;3.55;1.80;;;20.40;99.90;;;;;;4992021;28;20026;-70
2022/07/26 07:12:34;;;;;;;1.90;1.00;;;20.40;99.90;;;;;;4991760;28;20053;-71
2022/07/26 07:15:00;;;;;;;1.92;0.50;;;20.10;99.90;;;;;;4993251;28;20061;-70
2022/07/26 07:17:25;;;;;;;1.60;0.60;;;19.70;99.90;;;;;;4993500;28;20035;-71
2022/07/26 07:19:51;;;;;;;1.60;0.40;;;19.40;99.90;;;;;;4992886;28;20037;-72
2022/07/26 07:22:17;;;;;;;2.20;0.60;;;19.10;99.90;;;;;;4974803;28;20038;-71
2022/07/26 07:24:43;;;;;;;1.90;0.60;;;20.00;99.90;;;;;;4991336;28;20451;-71
2022/07/26 07:27:09;;;;;;;3.38;0.90;;;21.00;99.90;;;;;;4992495;28;20034;-71
2022/07/26 07:29:34;;;;;;;1.73;0.70;;;18.20;99.90;;;;;;4991357;28;20030;-71
2022/07/26 07:32:00;;;;;;;4.00;0.85;;;18.10;99.90;;;;;;4992835;28;20015;-71
2022/07/26 07:34:25;;;;;;;3.22;0.85;;;19.20;99.90;;;;;;4993772;28;20022;-72
2022/07/26 07:36:52;;;;;;;4.00;0.88;;;17.90;99.90;;;;;;4992852;28;20220;-72
2022/07/26 07:39:18;;;;;;;3.15;0.88;;;17.90;99.90;;;;;;4993502;28;20154;-73
2022/07/26 07:41:47;;;;;;;4.68;1.08;;;17.90;99.90;;;;;;4993974;28;20113;-72
2022/07/26 07:44:13;;;;;;;2.90;0.80;;;17.90;99.90;;;;;;4991635;28;20391;-72
2022/07/26 07:46:39;;;;;;;3.60;1.00;;;17.90;99.90;;;;;;4985041;28;20056;-73
2022/07/26 07:49:05;;;;;;;2.97;1.13;;;17.90;99.90;;;;;;4986412;28;20019;-72
2022/07/26 07:51:32;;;;;;;4.85;1.08;;;18.10;99.90;;;;;;4987198;28;20277;-72
2022/07/26 07:53:57;;;;;;;1.85;0.88;;;18.10;99.90;;;;;;4988518;28;20436;-73
2022/07/26 07:56:23;;;;;;;2.90;1.00;;;18.20;99.90;;;;;;4990808;28;20045;-70
2022/07/26 07:58:49;;;;;;;2.22;1.15;;;18.20;99.90;;;;;;4991395;28;20257;-72
2022/07/26 08:01:15;;;;;;;1.00;0.60;;;;;;;;;;4990793;28;20419;-71
2022/07/26 08:03:40;;;;;;;2.67;0.70;;;18.40;99.90;;;;;;4998328;28;20030;-72
2022/07/26 08:06:07;;;;;;;2.95;0.77;;;18.40;99.90;;;;;;4996406;28;20121;-72
2022/07/26 08:08:34;;;;;;;3.53;0.70;;;18.40;99.90;;;;;;5003396;28;20045;-71
2022/07/26 08:10:59;;;;;;;5.35;1.58;;;18.60;99.90;;;;;;4996691;28;20038;-71
2022/07/26 08:13:25;;;;;;;4.65;1.00;;;18.70;99.90;;;;;;4998090;28;20471;-71
2022/07/26 08:15:52;;;;;;;5.88;1.15;;;18.70;99.90;;;;;;4996696;28;20647;-71
2022/07/26 08:18:19;;;;;;;4.45;1.20;;;18.60;99.90;;;;;;4989225;28;20030;-71
2022/07/26 08:20:44;;;;;;;4.47;1.10;;;18.70;99.90;;;;;;4990830;28;20038;-71
2022/07/26 08:23:10;;;;;;;2.00;0.82;;;18.60;99.90;;;;;;4994567;28;20035;-71
2022/07/26 08:25:36;;;;;;;2.40;0.63;;;18.50;99.90;;;;;;4999721;28;20100;-71
2022/07/26 08:28:01;;;;;;;2.95;0.60;;;18.30;99.90;;;;;;4992728;28;20435;-70
2022/07/26 08:30:27;;;;;;;1.55;0.80;;;18.20;99.90;;;;;;4989729;28;20034;-70
2022/07/26 08:32:52;;;;;;;1.08;0.35;;;17.90;99.90;;;;;;4987104;28;20102;-70
2022/07/26 08:35:18;;;;;;;0.80;0.35;;;17.70;99.90;;;;;;4990987;28;20034;-70
2022/07/26 08:37:43;;;;;;;2.58;0.70;;;17.80;99.90;;;;;;4990614;28;20022;-70
2022/07/26 08:40:09;;;;;;;1.38;0.57;;;17.70;99.90;;;;;;4994866;28;20026;-70
2022/07/26 08:42:35;;;;;;;1.00;0.57;;;17.50;99.90;;;;;;4991041;28;20391;-70
2022/07/26 08:45:01;;;;;;;3.85;0.63;;;17.60;99.90;;;;;;5000705;28;20472;-70
2022/07/26 08:47:26;;;;;;;2.08;0.68;;;17.50;99.90;;;;;;4990548;28;20038;-70
2022/07/26 08:49:52;;;;;;;2.63;0.70;;;17.80;99.90;;;;;;4993752;28;20102;-71
2022/07/26 08:52:17;;;;;;;1.50;0.60;;;17.80;99.90;;;;;;4989949;28;20045;-70
2022/07/26 08:54:48;;;;;;;3.78;0.77;;;18.00;99.90;;;;;;4993751;28;20056;-70
2022/07/26 08:57:14;;;;;;;2.25;0.70;;;18.10;99.90;;;;;;4992093;28;20065;-70
2022/07/26 08:59:40;;;;;;;3.53;0.85;;;18.30;99.90;;;;;;5000428;28;20097;-70
2022/07/26 09:02:09;;;;;;;3.20;0.82;;;18.50;99.90;;;;;;4988355;28;20038;-71
2022/07/26 09:04:39;;;;;;;2.28;0.70;;;18.70;99.90;;;;;;4991026;28;20161;-70
2022/07/26 09:07:06;;;;;;;2.30;0.88;;;18.80;99.90;;;;;;4994378;28;20030;-71
2022/07/26 09:09:34;;;;;;;2.58;0.65;;;19.00;99.90;;;;;;4991998;28;20387;-71
2022/07/26 09:12:17;;;;;;;4.55;1.08;;;19.10;99.90;;;;;;4991373;28;20683;-70
2022/07/26 09:14:45;;;;;;;1.63;0.60;;;18.90;99.90;;;;;;4992000;28;20034;-70
2022/07/26 09:17:12;;;;;;;1.17;0.55;;;19.20;99.90;;;;;;4996223;28;20030;-70
2022/07/26 09:19:38;;;;;;;3.45;0.60;;;20.20;99.90;;;;;;4999879;28;20041;-71
2022/07/26 09:22:12;;;;;;;2.30;0.50;;;19.30;99.90;;;;;;4989563;28;20404;-70
2022/07/26 09:24:41;;;;;;;1.90;0.68;;;19.40;99.90;;;;;;4988427;28;20549;-73
2022/07/26 09:27:10;;;;;;;2.63;0.63;;;19.40;99.90;;;;;;4990388;28;20045;-71
2022/07/26 09:29:53;;;;;;;5.22;0.50;;;19.50;99.90;;;;;;4992025;28;20026;-71
2022/07/26 09:32:24;;;;;;;1.57;0.50;;;20.20;99.90;;;;;;4988760;28;20482;-70
2022/07/26 09:34:55;;;;;;;2.13;0.50;;;19.60;99.90;;;;;;5008999;28;20053;-70
2022/07/26 09:37:38;;;;;;;1.52;0.40;;;19.60;99.90;;;;;;4999671;28;20062;-70
2022/07/26 09:40:10;;;;;;;1.00;0.38;;;19.60;99.90;;;;;;4985292;28;20026;-71
2022/07/26 09:42:36;;;;;;;4.50;0.40;;;19.50;99.90;;;;;;4997131;28;20041;-70
2022/07/26 09:45:13;;;;;;;5.05;0.60;;;19.30;99.90;;;;;;4986355;28;20090;-70
2022/07/26 09:47:39;;;;;;;2.80;0.40;;;19.20;99.90;;;;;;4989647;28;20065;-70
2022/07/26 09:50:15;;;;;;;3.42;0.32;;;19.10;99.90;;;;;;4991172;28;20054;-70
2022/07/26 09:52:56;;;;;;;1.98;0.40;;;19.50;99.90;;;;;;4989389;28;20062;-70
2022/07/26 09:55:21;;;;;;;0.90;0.60;;;19.20;99.90;;;;;;4989691;28;20022;-70
2022/07/26 09:57:50;;;;;;;1.48;0.40;;;19.40;99.90;;;;;;4992390;28;20034;-71
2022/07/26 10:00:16;;;;;;;2.85;0.70;;;19.50;99.90;;;;;;4989478;28;20384;-70
2022/07/26 10:02:41;;;;;;;1.50;0.30;;;19.80;99.90;;;;;;4988684;28;20557;-70
2022/07/26 10:05:07;;;;;;;2.92;0.40;;;19.90;99.90;;;;;;4995942;28;20045;-70
2022/07/26 10:07:33;;;;;;;2.33;0.40;;;19.90;99.90;;;;;;4988940;28;20023;-70
2022/07/26 10:10:12;;;;;;;0.38;0.30;;;20.00;99.90;;;;;;4987822;28;20108;-70
2022/07/26 10:12:42;;;;;;;1.42;0.40;;;20.00;99.90;;;;;;4993542;28;20472;-70
2022/07/26 10:15:38;;;;;;;1.33;0.50;;;20.10;99.90;;;;;;4989950;28;20018;-70
2022/07/26 10:18:07;;;;;;;3.78;0.30;;;21.00;99.90;;;;;;4988788;28;20030;-70
2022/07/26 10:20:41;;;;;;;4.47;0.45;;;20.30;99.90;;;;;;4999479;28;20033;-71
2022/07/26 10:23:33;;;;;;;3.28;0.75;;;20.40;99.90;;;;;;4989464;28;20088;-70
2022/07/26 10:26:00;;;;;;;2.47;0.65;;;20.50;99.90;;;;;;4995065;28;20076;-70
2022/07/26 10:28:28;;;;;;;1.40;0.35;;;20.10;99.90;;;;;;4990780;28;20065;-71
2022/07/26 10:31:22;;;;;;;2.97;0.57;;;21.20;99.90;;;;;;5000149;28;20096;-70
2022/07/26 10:33:50;;;;;;;3.72;0.40;;;19.10;99.90;;;;;;4993461;28;20031;-71
2022/07/26 10:36:29;;;;;;;1.20;0.40;;;18.30;99.90;;;;;;5005202;28;20110;-70
2022/07/26 10:39:15;;;;;;;1.30;0.40;;;18.00;99.90;;;;;;4990340;28;20069;-70
2022/07/26 10:41:56;;;;;;;1.60;0.40;;;17.70;99.90;;;;;;4986918;28;20030;-71
2022/07/26 10:44:27;;;;;;;2.55;0.40;;;17.60;99.90;;;;;;4988173;28;20038;-72
2022/07/26 10:46:58;;;;;;;0.93;0.50;;;17.80;99.90;;;;;;4992416;28;20062;-70
2022/07/26 10:49:57;;;;;;;2.47;0.40;;;17.90;99.90;;;;;;4994574;28;20029;-72
2022/07/26 10:52:25;;;;;;;1.85;0.43;;;18.00;99.90;;;;;;4988044;28;20479;-72
2022/07/26 10:55:03;;;;;;;2.75;0.47;;;18.20;99.90;;;;;;4989265;28;20030;-72
2022/07/26 10:57:40;;;;;;;3.30;0.73;;;18.50;99.90;;;;;;4990384;28;20049;-72
2022/07/26 11:00:22;;;;;;;4.13;0.68;;;18.70;99.90;;;;;;4979058;28;20066;-72
2022/07/26 11:02:52;;;;;;;2.97;0.45;;;18.90;99.90;;;;;;4980978;28;20038;-72
2022/07/26 11:05:20;;;;;;;2.42;0.50;;;19.00;99.90;;;;;;4989164;28;20060;-71
2022/07/26 11:08:03;;;;;;;1.55;0.43;;;19.20;99.90;;;;;;5003391;28;20548;-71
2022/07/26 11:10:35;;;;;;;3.70;0.50;;;19.50;99.90;;;;;;4990491;28;20148;-71
2022/07/26 11:13:15;;;;;;;2.50;0.70;;;19.40;99.90;;;;;;4999912;28;20022;-71
2022/07/26 11:15:47;;;;;;;2.70;0.93;;;19.50;99.90;;;;;;5004208;28;20038;-71
2022/07/26 11:18:26;;;;;;;2.15;0.85;;;19.60;99.90;;;;;;4973447;28;20050;-71
2022/07/26 11:20:55;;;;;;;2.90;0.68;;;19.90;99.90;;;;;;4990933;28;20095;-71
2022/07/26 11:23:35;;;;;;;2.40;1.05;;;20.30;99.90;;;;;;4991210;28;20463;-71
2022/07/26 11:26:15;;;;;;;3.67;0.90;;;20.50;99.90;;;;;;4992188;28;20050;-71
2022/07/26 11:28:58;;;;;;;2.75;0.98;;;20.30;99.90;;;;;;4991286;28;20080;-71
2022/07/26 11:31:46;;;;;;;1.98;0.57;;;20.30;99.90;;;;;;4983714;28;20026;-71
2022/07/26 11:34:20;;;;;;;2.03;0.88;;;20.30;99.90;;;;;;5000272;28;20034;-71
2022/07/26 11:36:48;;;;;;;2.47;0.68;;;20.50;99.90;;;;;;4992071;28;20132;-71
2022/07/26 11:39:22;;;;;;;3.47;0.55;;;20.40;99.90;;;;;;4992752;28;20101;-71
2022/07/26 11:41:49;;;;;;;4.28;0.80;;;20.50;99.90;;;;;;4990548;28;20041;-71
2022/07/26 11:44:19;;;;;;;3.90;1.10;;;20.50;99.90;;;;;;4990771;28;20085;-71
2022/07/26 11:46:46;;;;;;;5.97;1.20;;;20.80;99.90;;;;;;4990172;28;20375;-72
2022/07/26 11:49:33;;;;;;;6.88;3.15;;;20.80;99.90;;;;;;4991179;28;20014;-72
2022/07/26 11:52:00;;;;;;;12.07;5.45;;;20.90;99.90;;;;;;4991022;28;20014;-72
2022/07/26 11:54:31;;;;;;;6.07;1.77;;;21.90;99.90;;;;;;4991001;28;20072;-71
2022/07/26 11:57:02;;;;;;;6.88;2.28;;;21.20;99.80;;;;;;4994716;28;20116;-71
2022/07/26 11:59:34;;;;;;;1.77;0.90;;;21.00;99.60;;;;;;4990525;28;20399;-71
2022/07/26 12:02:01;;;;;;;4.78;0.93;;;20.70;98.40;;;;;;4990907;28;20044;-71
2022/07/26 12:04:29;;;;;;;2.53;0.30;;;20.20;99.30;;;;;;4991598;28;20026;-71
2022/07/26 12:06:56;;;;;;;2.38;0.40;;;20.10;99.70;;;;;;4999490;28;20101;-72
2022/07/26 12:09:45;;;;;;;1.15;0.40;;;20.00;99.80;;;;;;4995985;28;20018;-71
2022/07/26 12:12:21;;;;;;;2.17;0.60;;;21.00;99.90;;;;;;4990081;28;20097;-71
2022/07/26 12:15:06;;;;;;;2.65;0.45;;;20.20;99.50;;;;;;4975517;28;20023;-71
2022/07/26 12:17:32;;;;;;;1.70;0.40;;;20.40;99.10;;;;;;4992845;28;20034;-70
2022/07/26 12:20:12;;;;;;;2.42;0.50;;;20.50;98.60;;;;;;4991588;28;20034;-69
2022/07/26 12:22:38;;;;;;;2.38;0.50;;;20.90;98.40;;;;;;4990554;28;20030;-70
2022/07/26 12:25:04;;;;;;;1.17;0.40;;;20.80;97.70;;;;;;4991503;28;20133;-70
2022/07/26 12:27:31;;;;;;;2.28;0.77;;;21.00;97.20;;;;;;4992489;28;20040;-70
2022/07/26 12:30:00;;;;;;;3.15;0.60;;;21.10;97.10;;;;;;4990272;28;20027;-70
2022/07/26 12:32:37;;;;;;;2.63;0.80;;;21.70;97.20;;;;;;4991117;28;20084;-70
2022/07/26 12:35:12;;;;;;;2.50;0.57;;;21.40;96.80;;;;;;4985590;28;20026;-70
2022/07/26 12:37:47;;;;;;;4.15;0.60;;;21.30;96.40;;;;;;4996700;28;20022;-70
2022/07/26 12:40:16;;;;;;;2.65;0.77;;;21.50;96.50;;;;;;4982707;28;20049;-70
2022/07/26 12:42:50;;;;;;;4.75;0.75;;;21.40;96.20;;;;;;4991492;28;20038;-70
2022/07/26 12:45:19;;;;;;;6.47;1.45;;;21.40;96.60;;;;;;4987547;28;20137;-70
2022/07/26 12:47:49;;;;;;;6.60;0.90;;;21.40;96.20;;;;;;4990850;28;20037;-71
2022/07/26 12:50:16;;;;;;;2.33;0.70;;;21.50;96.70;;;;;;4988873;28;20030;-71
2022/07/26 12:52:42;;;;;;;5.30;0.85;;;21.60;96.00;;;;;;4990033;28;20030;-71
2022/07/26 12:55:12;;;;;;;5.95;1.35;;;21.50;95.70;;;;;;5003155;28;20029;-71